createdAt,value
2017-05-25T00:00:17.573Z,1017.52
2017-05-25T00:00:43.705Z,1017.54
2017-05-25T00:01:09.807Z,1017.53
2017-05-25T00:01:35.923Z,1017.59
2017-05-25T00:02:02.026Z,1017.56
2017-05-25T00:02:28.117Z,1017.58
2017-05-25T00:02:54.251Z,1017.58
2017-05-25T00:03:20.404Z,1017.57
2017-05-25T00:03:46.545Z,1017.6
2017-05-25T00:04:12.681Z,1017.58
2017-05-25T00:04:38.839Z,1017.59
2017-05-25T00:05:04.979Z,1017.57
2017-05-25T00:05:31.080Z,1017.62
2017-05-25T00:05:57.215Z,1017.59
2017-05-25T00:06:23.326Z,1017.61
2017-05-25T00:06:49.503Z,1017.6
2017-05-25T00:07:15.638Z,1017.62
2017-05-25T00:07:41.775Z,1017.64
2017-05-25T00:08:07.909Z,1017.63
2017-05-25T00:08:34.025Z,1017.59
2017-05-25T00:09:00.181Z,1017.67
2017-05-25T00:09:26.286Z,1017.61
2017-05-25T00:09:52.426Z,1017.64
2017-05-25T00:10:18.555Z,1017.65
2017-05-25T00:10:44.660Z,1017.61
2017-05-25T00:11:10.775Z,1017.6
2017-05-25T00:11:36.898Z,1017.62
2017-05-25T00:12:03.034Z,1017.61
2017-05-25T00:12:29.127Z,1017.6
2017-05-25T00:12:55.218Z,1017.62
2017-05-25T00:13:21.350Z,1017.62
2017-05-25T00:13:47.476Z,1017.59
2017-05-25T00:14:13.609Z,1017.62
2017-05-25T00:14:39.751Z,1017.62
2017-05-25T00:15:05.872Z,1017.6
2017-05-25T00:15:32.046Z,1017.6
2017-05-25T00:15:58.101Z,1017.62
2017-05-25T00:16:24.217Z,1017.62
2017-05-25T00:16:50.325Z,1017.62
2017-05-25T00:17:16.473Z,1017.62
2017-05-25T00:17:42.593Z,1017.62
2017-05-25T00:18:08.751Z,1017.64
2017-05-25T00:18:34.911Z,1017.65
2017-05-25T00:19:01.084Z,1017.61
2017-05-25T00:19:27.232Z,1017.63
2017-05-25T00:19:53.373Z,1017.6
2017-05-25T00:20:19.481Z,1017.63
2017-05-25T00:20:45.605Z,1017.63
2017-05-25T00:21:11.698Z,1017.62
2017-05-25T00:21:37.834Z,1017.63
2017-05-25T00:22:03.958Z,1017.65
2017-05-25T00:22:30.049Z,1017.63
2017-05-25T00:22:56.155Z,1017.61
2017-05-25T00:23:22.289Z,1017.65
2017-05-25T00:23:48.404Z,1017.59
2017-05-25T00:24:14.559Z,1017.61
2017-05-25T00:24:40.705Z,1017.62
2017-05-25T00:25:06.815Z,1017.59
2017-05-25T00:25:32.942Z,1017.63
2017-05-25T00:25:59.057Z,1017.63
2017-05-25T00:26:25.185Z,1017.59
2017-05-25T00:26:51.319Z,1017.6
2017-05-25T00:27:17.408Z,1017.64
2017-05-25T00:27:43.536Z,1017.6
2017-05-25T00:28:09.699Z,1017.54
2017-05-25T00:28:35.790Z,1017.56
2017-05-25T00:29:01.913Z,1017.56
2017-05-25T00:29:28.036Z,1017.56
2017-05-25T00:29:54.130Z,1017.56
2017-05-25T00:30:20.291Z,1017.55
2017-05-25T00:30:46.377Z,1017.54
2017-05-25T00:31:12.504Z,1017.53
2017-05-25T00:31:38.609Z,1017.52
2017-05-25T00:32:04.726Z,1017.5
2017-05-25T00:32:30.873Z,1017.5
2017-05-25T00:32:57.063Z,1017.5
2017-05-25T00:33:23.180Z,1017.5
2017-05-25T00:33:49.295Z,1017.5
2017-05-25T00:34:15.432Z,1017.5
2017-05-25T00:34:41.530Z,1017.48
2017-05-25T00:35:07.646Z,1017.52
2017-05-25T00:35:33.750Z,1017.51
2017-05-25T00:35:59.870Z,1017.53
2017-05-25T00:36:26.031Z,1017.53
2017-05-25T00:36:52.126Z,1017.54
2017-05-25T00:37:18.241Z,1017.58
2017-05-25T00:37:44.406Z,1017.58
2017-05-25T00:38:10.532Z,1017.57
2017-05-25T00:38:36.649Z,1017.57
2017-05-25T00:39:02.784Z,1017.59
2017-05-25T00:39:28.966Z,1017.61
2017-05-25T00:39:55.109Z,1017.61
2017-05-25T00:40:21.211Z,1017.55
2017-05-25T00:40:47.371Z,1017.58
2017-05-25T00:41:13.483Z,1017.56
2017-05-25T00:41:39.582Z,1017.53
2017-05-25T00:42:05.716Z,1017.55
2017-05-25T00:42:31.834Z,1017.53
2017-05-25T00:42:57.954Z,1017.55
2017-05-25T00:43:24.061Z,1017.57
2017-05-25T00:43:50.210Z,1017.56
2017-05-25T00:44:16.327Z,1017.51
2017-05-25T00:44:42.516Z,1017.55
2017-05-25T00:45:08.644Z,1017.51
2017-05-25T00:45:34.732Z,1017.5
2017-05-25T00:46:00.837Z,1017.5
2017-05-25T00:46:26.965Z,1017.5
2017-05-25T00:46:53.117Z,1017.45
2017-05-25T00:47:19.211Z,1017.48
2017-05-25T00:47:45.325Z,1017.49
2017-05-25T00:48:11.461Z,1017.5
2017-05-25T00:48:37.614Z,1017.46
2017-05-25T00:49:03.753Z,1017.5
2017-05-25T00:49:29.861Z,1017.46
2017-05-25T00:49:55.989Z,1017.48
2017-05-25T00:50:22.080Z,1017.49
2017-05-25T00:50:48.233Z,1017.46
2017-05-25T00:51:14.425Z,1017.46
2017-05-25T00:51:40.512Z,1017.45
2017-05-25T00:52:06.641Z,1017.47
2017-05-25T00:52:32.737Z,1017.48
2017-05-25T00:52:58.865Z,1017.42
2017-05-25T00:53:24.967Z,1017.45
2017-05-25T00:53:51.081Z,1017.45
2017-05-25T00:54:17.240Z,1017.44
2017-05-25T00:54:43.403Z,1017.47
2017-05-25T00:55:09.568Z,1017.42
2017-05-25T00:55:35.743Z,1017.45
2017-05-25T00:56:01.850Z,1017.45
2017-05-25T00:56:27.966Z,1017.45
2017-05-25T00:56:54.084Z,1017.41
2017-05-25T00:57:20.219Z,1017.42
2017-05-25T00:57:46.338Z,1017.44
2017-05-25T00:58:12.472Z,1017.45
2017-05-25T00:58:38.610Z,1017.44
2017-05-25T00:59:04.711Z,1017.44
2017-05-25T00:59:30.845Z,1017.41
2017-05-25T00:59:56.960Z,1017.4
2017-05-25T01:00:23.085Z,1017.41
2017-05-25T01:00:49.189Z,1017.42
2017-05-25T01:01:15.335Z,1017.42
2017-05-25T01:01:41.418Z,1017.44
2017-05-25T01:02:07.584Z,1017.43
2017-05-25T01:02:33.680Z,1017.42
2017-05-25T01:02:59.847Z,1017.43
2017-05-25T01:03:25.973Z,1017.45
2017-05-25T01:03:52.090Z,1017.45
2017-05-25T01:04:18.226Z,1017.47
2017-05-25T01:04:44.321Z,1017.45
2017-05-25T01:05:10.484Z,1017.45
2017-05-25T01:05:36.623Z,1017.47
2017-05-25T01:06:02.721Z,1017.47
2017-05-25T01:06:28.836Z,1017.42
2017-05-25T01:06:54.945Z,1017.45
2017-05-25T01:07:21.044Z,1017.43
2017-05-25T01:07:47.158Z,1017.42
2017-05-25T01:08:13.306Z,1017.45
2017-05-25T01:08:39.469Z,1017.41
2017-05-25T01:09:05.611Z,1017.46
2017-05-25T01:09:31.709Z,1017.46
2017-05-25T01:09:57.852Z,1017.46
2017-05-25T01:10:23.956Z,1017.5
2017-05-25T01:10:50.083Z,1017.45
2017-05-25T01:11:16.175Z,1017.48
2017-05-25T01:11:42.278Z,1017.43
2017-05-25T01:12:08.412Z,1017.46
2017-05-25T01:12:34.500Z,1017.48
2017-05-25T01:13:00.654Z,1017.46
2017-05-25T01:13:26.789Z,1017.47
2017-05-25T01:13:52.908Z,1017.5
2017-05-25T01:14:19.003Z,1017.46
2017-05-25T01:14:45.101Z,1017.51
2017-05-25T01:15:11.203Z,1017.53
2017-05-25T01:15:37.337Z,1017.52
2017-05-25T01:16:03.476Z,1017.56
2017-05-25T01:16:29.599Z,1017.54
2017-05-25T01:16:55.760Z,1017.57
2017-05-25T01:17:21.875Z,1017.57
2017-05-25T01:17:47.971Z,1017.58
2017-05-25T01:18:14.107Z,1017.59
2017-05-25T01:18:40.201Z,1017.57
2017-05-25T01:19:06.317Z,1017.61
2017-05-25T01:19:32.480Z,1017.64
2017-05-25T01:19:58.602Z,1017.59
2017-05-25T01:20:24.737Z,1017.59
2017-05-25T01:20:50.828Z,1017.64
2017-05-25T01:21:16.923Z,1017.65
2017-05-25T01:21:43.057Z,1017.63
2017-05-25T01:22:09.180Z,1017.64
2017-05-25T01:22:35.269Z,1017.63
2017-05-25T01:23:01.377Z,1017.66
2017-05-25T01:23:27.499Z,1017.67
2017-05-25T01:23:53.642Z,1017.65
2017-05-25T01:24:19.804Z,1017.67
2017-05-25T01:24:45.903Z,1017.67
2017-05-25T01:25:12.018Z,1017.69
2017-05-25T01:25:38.121Z,1017.67
2017-05-25T01:26:04.228Z,1017.67
2017-05-25T01:26:30.390Z,1017.72
2017-05-25T01:26:56.492Z,1017.7
2017-05-25T01:27:22.624Z,1017.69
2017-05-25T01:27:48.735Z,1017.67
2017-05-25T01:28:14.855Z,1017.7
2017-05-25T01:28:40.992Z,1017.68
2017-05-25T01:29:07.114Z,1017.7
2017-05-25T01:29:33.231Z,1017.68
2017-05-25T01:29:59.341Z,1017.68
2017-05-25T01:30:25.488Z,1017.68
2017-05-25T01:30:51.575Z,1017.72
2017-05-25T01:31:17.706Z,1017.72
2017-05-25T01:31:43.825Z,1017.72
2017-05-25T01:32:09.931Z,1017.69
2017-05-25T01:32:36.053Z,1017.7
2017-05-25T01:33:02.195Z,1017.72
2017-05-25T01:33:28.332Z,1017.7
2017-05-25T01:33:54.481Z,1017.71
2017-05-25T01:34:20.595Z,1017.71
2017-05-25T01:34:46.780Z,1017.72
2017-05-25T01:35:12.963Z,1017.69
2017-05-25T01:35:39.051Z,1017.7
2017-05-25T01:36:05.154Z,1017.71
2017-05-25T01:36:31.343Z,1017.74
2017-05-25T01:36:57.439Z,1017.74
2017-05-25T01:37:23.541Z,1017.72
2017-05-25T01:37:49.666Z,1017.75
2017-05-25T01:38:15.797Z,1017.71
2017-05-25T01:38:41.925Z,1017.73
2017-05-25T01:39:08.041Z,1017.73
2017-05-25T01:39:34.145Z,1017.72
2017-05-25T01:40:00.278Z,1017.72
2017-05-25T01:40:26.390Z,1017.72
2017-05-25T01:40:52.515Z,1017.71
2017-05-25T01:41:18.651Z,1017.7
2017-05-25T01:41:44.789Z,1017.71
2017-05-25T01:42:10.886Z,1017.68
2017-05-25T01:42:36.981Z,1017.67
2017-05-25T01:43:03.110Z,1017.7
2017-05-25T01:43:29.243Z,1017.67
2017-05-25T01:43:55.407Z,1017.66
2017-05-25T01:44:21.557Z,1017.63
2017-05-25T01:44:47.692Z,1017.66
2017-05-25T01:45:13.804Z,1017.64
2017-05-25T01:45:39.901Z,1017.65
2017-05-25T01:46:06.034Z,1017.64
2017-05-25T01:46:32.130Z,1017.62
2017-05-25T01:46:58.293Z,1017.63
2017-05-25T01:47:24.404Z,1017.6
2017-05-25T01:47:50.528Z,1017.6
2017-05-25T01:48:16.655Z,1017.59
2017-05-25T01:48:42.768Z,1017.59
2017-05-25T01:49:08.894Z,1017.65
2017-05-25T01:49:35.061Z,1017.63
2017-05-25T01:50:01.255Z,1017.61
2017-05-25T01:50:27.346Z,1017.65
2017-05-25T01:50:53.454Z,1017.65
2017-05-25T01:51:19.579Z,1017.65
2017-05-25T01:51:45.674Z,1017.68
2017-05-25T01:52:11.780Z,1017.68
2017-05-25T01:52:37.910Z,1017.65
2017-05-25T01:53:04.049Z,1017.67
2017-05-25T01:53:30.178Z,1017.69
2017-05-25T01:53:56.297Z,1017.64
2017-05-25T01:54:22.435Z,1017.65
2017-05-25T01:54:48.533Z,1017.63
2017-05-25T01:55:14.646Z,1017.64
2017-05-25T01:55:40.781Z,1017.62
2017-05-25T01:56:06.882Z,1017.64
2017-05-25T01:56:32.973Z,1017.68
2017-05-25T01:56:59.125Z,1017.66
2017-05-25T01:57:25.231Z,1017.62
2017-05-25T01:57:51.340Z,1017.63
2017-05-25T01:58:17.468Z,1017.62
2017-05-25T01:58:43.607Z,1017.63
2017-05-25T01:59:09.723Z,1017.61
2017-05-25T01:59:35.886Z,1017.61
2017-05-25T02:00:02.050Z,1017.62
2017-05-25T02:00:28.154Z,1017.62
2017-05-25T02:00:54.290Z,1017.62
2017-05-25T02:01:20.404Z,1017.61
2017-05-25T02:01:46.528Z,1017.61
2017-05-25T02:02:12.660Z,1017.58
2017-05-25T02:02:38.804Z,1017.6
2017-05-25T02:03:04.951Z,1017.53
2017-05-25T02:03:31.144Z,1017.56
2017-05-25T02:03:57.293Z,1017.55
2017-05-25T02:04:23.434Z,1017.57
2017-05-25T02:04:49.562Z,1017.54
2017-05-25T02:05:15.737Z,1017.53
2017-05-25T02:05:41.786Z,1017.54
2017-05-25T02:06:07.877Z,1017.51
2017-05-25T02:06:33.975Z,1017.53
2017-05-25T02:07:00.081Z,1017.53
2017-05-25T02:07:26.203Z,1017.49
2017-05-25T02:07:52.342Z,1017.48
2017-05-25T02:08:18.510Z,1017.48
2017-05-25T02:08:44.636Z,1017.44
2017-05-25T02:09:10.750Z,1017.47
2017-05-25T02:09:36.884Z,1017.47
2017-05-25T02:10:03.011Z,1017.46
2017-05-25T02:10:29.103Z,1017.44
2017-05-25T02:10:55.230Z,1017.44
2017-05-25T02:11:21.364Z,1017.44
2017-05-25T02:11:47.452Z,1017.41
2017-05-25T02:12:13.582Z,1017.45
2017-05-25T02:12:39.743Z,1017.42
2017-05-25T02:13:05.835Z,1017.43
2017-05-25T02:13:31.959Z,1017.42
2017-05-25T02:13:58.092Z,1017.43
2017-05-25T02:14:24.210Z,1017.39
2017-05-25T02:14:50.372Z,1017.4
2017-05-25T02:15:16.507Z,1017.4
2017-05-25T02:15:42.605Z,1017.41
2017-05-25T02:16:08.758Z,1017.37
2017-05-25T02:16:34.873Z,1017.36
2017-05-25T02:17:00.997Z,1017.43
2017-05-25T02:17:27.187Z,1017.4
2017-05-25T02:17:53.317Z,1017.41
2017-05-25T02:18:19.447Z,1017.36
2017-05-25T02:18:45.615Z,1017.4
2017-05-25T02:19:11.715Z,1017.39
2017-05-25T02:19:37.853Z,1017.41
2017-05-25T02:20:03.990Z,1017.36
2017-05-25T02:20:30.089Z,1017.38
2017-05-25T02:20:56.201Z,1017.39
2017-05-25T02:21:22.356Z,1017.39
2017-05-25T02:21:48.497Z,1017.39
2017-05-25T02:22:14.664Z,1017.38
2017-05-25T02:22:40.760Z,1017.37
2017-05-25T02:23:06.875Z,1017.4
2017-05-25T02:23:32.982Z,1017.39
2017-05-25T02:23:59.139Z,1017.4
2017-05-25T02:24:25.254Z,1017.39
2017-05-25T02:24:51.437Z,1017.42
2017-05-25T02:25:17.544Z,1017.38
2017-05-25T02:25:43.654Z,1017.41
2017-05-25T02:26:09.777Z,1017.41
2017-05-25T02:26:35.910Z,1017.38
2017-05-25T02:27:02.375Z,1017.42
2017-05-25T02:27:28.480Z,1017.42
2017-05-25T02:27:54.618Z,1017.45
2017-05-25T02:28:20.800Z,1017.45
2017-05-25T02:28:46.958Z,1017.45
2017-05-25T02:29:13.117Z,1017.42
2017-05-25T02:29:39.268Z,1017.44
2017-05-25T02:30:05.405Z,1017.44
2017-05-25T02:30:31.493Z,1017.47
2017-05-25T02:30:57.616Z,1017.43
2017-05-25T02:31:23.722Z,1017.45
2017-05-25T02:31:49.815Z,1017.46
2017-05-25T02:32:15.931Z,1017.46
2017-05-25T02:32:42.061Z,1017.42
2017-05-25T02:33:08.160Z,1017.44
2017-05-25T02:33:34.268Z,1017.41
2017-05-25T02:34:00.381Z,1017.43
2017-05-25T02:34:26.478Z,1017.42
2017-05-25T02:34:52.643Z,1017.45
2017-05-25T02:35:18.762Z,1017.42
2017-05-25T02:35:44.875Z,1017.4
2017-05-25T02:36:11.013Z,1017.42
2017-05-25T02:36:37.111Z,1017.39
2017-05-25T02:37:03.200Z,1017.39
2017-05-25T02:37:29.333Z,1017.39
2017-05-25T02:37:55.492Z,1017.4
2017-05-25T02:38:21.667Z,1017.39
2017-05-25T02:38:47.791Z,1017.41
2017-05-25T02:39:13.978Z,1017.4
2017-05-25T02:39:40.087Z,1017.4
2017-05-25T02:40:06.212Z,1017.44
2017-05-25T02:40:32.352Z,1017.43
2017-05-25T02:40:58.457Z,1017.44
2017-05-25T02:41:24.586Z,1017.46
2017-05-25T02:41:50.701Z,1017.45
2017-05-25T02:42:16.854Z,1017.45
2017-05-25T02:42:42.958Z,1017.47
2017-05-25T02:43:09.049Z,1017.47
2017-05-25T02:43:35.198Z,1017.48
2017-05-25T02:44:01.347Z,1017.49
2017-05-25T02:44:27.481Z,1017.47
2017-05-25T02:44:53.610Z,1017.46
2017-05-25T02:45:19.776Z,1017.46
2017-05-25T02:45:45.903Z,1017.45
2017-05-25T02:46:12.037Z,1017.46
2017-05-25T02:46:38.151Z,1017.47
2017-05-25T02:47:04.249Z,1017.49
2017-05-25T02:47:30.415Z,1017.48
2017-05-25T02:47:56.505Z,1017.47
2017-05-25T02:48:22.652Z,1017.48
2017-05-25T02:48:48.841Z,1017.47
2017-05-25T02:49:15.017Z,1017.45
2017-05-25T02:49:41.126Z,1017.49
2017-05-25T02:50:07.210Z,1017.49
2017-05-25T02:50:33.336Z,1017.47
2017-05-25T02:50:59.442Z,1017.46
2017-05-25T02:51:25.534Z,1017.54
2017-05-25T02:51:51.630Z,1017.5
2017-05-25T02:52:17.763Z,1017.46
2017-05-25T02:52:43.855Z,1017.51
2017-05-25T02:53:09.997Z,1017.5
2017-05-25T02:53:36.133Z,1017.5
2017-05-25T02:54:02.229Z,1017.49
2017-05-25T02:54:28.322Z,1017.51
2017-05-25T02:54:54.484Z,1017.46
2017-05-25T02:55:20.641Z,1017.48
2017-05-25T02:55:46.731Z,1017.47
2017-05-25T02:56:12.836Z,1017.46
2017-05-25T02:56:38.941Z,1017.46
2017-05-25T02:57:05.052Z,1017.49
2017-05-25T02:57:31.152Z,1017.45
2017-05-25T02:57:57.316Z,1017.47
2017-05-25T02:58:23.461Z,1017.47
2017-05-25T02:58:49.629Z,1017.45
2017-05-25T02:59:15.767Z,1017.46
2017-05-25T02:59:41.912Z,1017.47
2017-05-25T03:00:08.050Z,1017.46
2017-05-25T03:00:34.155Z,1017.47
2017-05-25T03:01:00.284Z,1017.46
2017-05-25T03:01:26.420Z,1017.47
2017-05-25T03:01:52.510Z,1017.47
2017-05-25T03:02:18.627Z,1017.45
2017-05-25T03:02:44.761Z,1017.49
2017-05-25T03:03:10.886Z,1017.5
2017-05-25T03:03:37.001Z,1017.49
2017-05-25T03:04:03.111Z,1017.46
2017-05-25T03:04:29.319Z,1017.43
2017-05-25T03:04:55.436Z,1017.44
2017-05-25T03:05:21.543Z,1017.46
2017-05-25T03:05:47.672Z,1017.49
2017-05-25T03:06:13.797Z,1017.45
2017-05-25T03:06:39.919Z,1017.45
2017-05-25T03:07:06.031Z,1017.46
2017-05-25T03:07:32.144Z,1017.44
2017-05-25T03:07:58.270Z,1017.46
2017-05-25T03:08:24.384Z,1017.46
2017-05-25T03:08:50.492Z,1017.49
2017-05-25T03:09:16.621Z,1017.49
2017-05-25T03:09:42.737Z,1017.48
2017-05-25T03:10:08.862Z,1017.47
2017-05-25T03:10:35.023Z,1017.47
2017-05-25T03:11:01.112Z,1017.48
2017-05-25T03:11:27.215Z,1017.5
2017-05-25T03:11:53.307Z,1017.51
2017-05-25T03:12:19.414Z,1017.52
2017-05-25T03:12:45.569Z,1017.5
2017-05-25T03:13:11.708Z,1017.53
2017-05-25T03:13:37.841Z,1017.53
2017-05-25T03:14:03.979Z,1017.53
2017-05-25T03:14:30.136Z,1017.57
2017-05-25T03:14:56.262Z,1017.52
2017-05-25T03:15:22.372Z,1017.52
2017-05-25T03:15:48.462Z,1017.56
2017-05-25T03:16:14.560Z,1017.49
2017-05-25T03:16:40.752Z,1017.52
2017-05-25T03:17:06.847Z,1017.51
2017-05-25T03:17:33.036Z,1017.56
2017-05-25T03:17:59.176Z,1017.53
2017-05-25T03:18:25.324Z,1017.54
2017-05-25T03:18:51.488Z,1017.58
2017-05-25T03:19:17.604Z,1017.58
2017-05-25T03:19:43.749Z,1017.57
2017-05-25T03:20:09.883Z,1017.58
2017-05-25T03:20:36.034Z,1017.57
2017-05-25T03:21:02.126Z,1017.61
2017-05-25T03:21:28.233Z,1017.6
2017-05-25T03:21:54.359Z,1017.63
2017-05-25T03:22:20.478Z,1017.61
2017-05-25T03:22:46.610Z,1017.65
2017-05-25T03:23:12.705Z,1017.68
2017-05-25T03:23:38.839Z,1017.66
2017-05-25T03:24:04.961Z,1017.69
2017-05-25T03:24:31.128Z,1017.65
2017-05-25T03:24:57.237Z,1017.64
2017-05-25T03:25:23.361Z,1017.65
2017-05-25T03:25:49.476Z,1017.71
2017-05-25T03:26:15.607Z,1017.69
2017-05-25T03:26:41.737Z,1017.7
2017-05-25T03:27:07.877Z,1017.66
2017-05-25T03:27:34.006Z,1017.7
2017-05-25T03:28:00.138Z,1017.69
2017-05-25T03:28:26.259Z,1017.68
2017-05-25T03:28:52.416Z,1017.67
2017-05-25T03:29:18.533Z,1017.71
2017-05-25T03:29:44.697Z,1017.72
2017-05-25T03:30:10.846Z,1017.69
2017-05-25T03:30:36.936Z,1017.67
2017-05-25T03:31:03.038Z,1017.7
2017-05-25T03:31:29.144Z,1017.69
2017-05-25T03:31:55.257Z,1017.73
2017-05-25T03:32:21.382Z,1017.71
2017-05-25T03:32:47.515Z,1017.66
2017-05-25T03:33:13.659Z,1017.69
2017-05-25T03:33:39.779Z,1017.69
2017-05-25T03:34:05.904Z,1017.7
2017-05-25T03:34:32.034Z,1017.68
2017-05-25T03:34:58.195Z,1017.67
2017-05-25T03:35:24.310Z,1017.7
2017-05-25T03:35:50.457Z,1017.71
2017-05-25T03:36:16.563Z,1017.73
2017-05-25T03:36:42.708Z,1017.7
2017-05-25T03:37:08.831Z,1017.71
2017-05-25T03:37:35.019Z,1017.7
2017-05-25T03:38:01.113Z,1017.7
2017-05-25T03:38:27.253Z,1017.74
2017-05-25T03:38:53.391Z,1017.73
2017-05-25T03:39:19.543Z,1017.73
2017-05-25T03:39:45.662Z,1017.73
2017-05-25T03:40:11.767Z,1017.78
2017-05-25T03:40:37.868Z,1017.73
2017-05-25T03:41:03.987Z,1017.74
2017-05-25T03:41:30.091Z,1017.77
2017-05-25T03:41:56.199Z,1017.75
2017-05-25T03:42:22.312Z,1017.73
2017-05-25T03:42:48.440Z,1017.74
2017-05-25T03:43:14.605Z,1017.71
2017-05-25T03:43:40.719Z,1017.75
2017-05-25T03:44:06.857Z,1017.71
2017-05-25T03:44:33.019Z,1017.72
2017-05-25T03:44:59.142Z,1017.72
2017-05-25T03:45:25.302Z,1017.72
2017-05-25T03:45:51.391Z,1017.73
2017-05-25T03:46:17.513Z,1017.71
2017-05-25T03:46:43.651Z,1017.72
2017-05-25T03:47:09.741Z,1017.71
2017-05-25T03:47:35.887Z,1017.7
2017-05-25T03:48:02.055Z,1017.75
2017-05-25T03:48:28.196Z,1017.7
2017-05-25T03:48:54.310Z,1017.73
2017-05-25T03:49:20.445Z,1017.73
2017-05-25T03:49:46.570Z,1017.73
2017-05-25T03:50:12.661Z,1017.71
2017-05-25T03:50:38.794Z,1017.7
2017-05-25T03:51:04.886Z,1017.71
2017-05-25T03:51:31.020Z,1017.73
2017-05-25T03:51:57.113Z,1017.74
2017-05-25T03:52:23.231Z,1017.73
2017-05-25T03:52:49.395Z,1017.74
2017-05-25T03:53:15.521Z,1017.75
2017-05-25T03:53:41.661Z,1017.76
2017-05-25T03:54:07.820Z,1017.75
2017-05-25T03:54:33.949Z,1017.76
2017-05-25T03:55:00.088Z,1017.77
2017-05-25T03:55:26.191Z,1017.78
2017-05-25T03:55:52.326Z,1017.78
2017-05-25T03:56:18.442Z,1017.76
2017-05-25T03:56:44.539Z,1017.77
2017-05-25T03:57:10.631Z,1017.77
2017-05-25T03:57:36.794Z,1017.74
2017-05-25T03:58:03.301Z,1017.75
2017-05-25T03:58:29.438Z,1017.81
2017-05-25T03:58:55.599Z,1017.77
2017-05-25T03:59:21.705Z,1017.75
2017-05-25T03:59:47.889Z,1017.77
2017-05-25T04:00:14.015Z,1017.77
2017-05-25T04:00:40.177Z,1017.78
2017-05-25T04:01:06.293Z,1017.75
2017-05-25T04:01:32.416Z,1017.79
2017-05-25T04:01:58.566Z,1017.75
2017-05-25T04:02:24.694Z,1017.74
2017-05-25T04:02:50.857Z,1017.74
2017-05-25T04:03:16.971Z,1017.75
2017-05-25T04:03:43.119Z,1017.79
2017-05-25T04:04:09.281Z,1017.73
2017-05-25T04:04:35.397Z,1017.72
2017-05-25T04:05:01.517Z,1017.73
2017-05-25T04:05:27.625Z,1017.69
2017-05-25T04:05:53.719Z,1017.73
2017-05-25T04:06:19.809Z,1017.73
2017-05-25T04:06:45.919Z,1017.66
2017-05-25T04:07:12.016Z,1017.68
2017-05-25T04:07:38.120Z,1017.69
2017-05-25T04:08:04.261Z,1017.76
2017-05-25T04:08:30.409Z,1017.69
2017-05-25T04:08:56.544Z,1017.72
2017-05-25T04:09:22.662Z,1017.7
2017-05-25T04:09:48.775Z,1017.66
2017-05-25T04:10:14.912Z,1017.69
2017-05-25T04:10:41.035Z,1017.68
2017-05-25T04:11:07.133Z,1017.67
2017-05-25T04:11:33.234Z,1017.65
2017-05-25T04:11:59.333Z,1017.7
2017-05-25T04:12:25.425Z,1017.75
2017-05-25T04:12:51.556Z,1017.75
2017-05-25T04:13:17.648Z,1017.73
2017-05-25T04:13:43.786Z,1017.71
2017-05-25T04:14:09.910Z,1017.68
2017-05-25T04:14:36.028Z,1017.77
2017-05-25T04:15:02.163Z,1017.74
2017-05-25T04:15:28.261Z,1017.74
2017-05-25T04:15:54.403Z,1017.74
2017-05-25T04:16:20.534Z,1017.75
2017-05-25T04:16:46.641Z,1017.75
2017-05-25T04:17:12.776Z,1017.77
2017-05-25T04:17:38.901Z,1017.76
2017-05-25T04:18:05.061Z,1017.79
2017-05-25T04:18:31.205Z,1017.78
2017-05-25T04:18:57.365Z,1017.78
2017-05-25T04:19:23.531Z,1017.78
2017-05-25T04:19:49.659Z,1017.79
2017-05-25T04:20:15.766Z,1017.76
2017-05-25T04:20:41.854Z,1017.76
2017-05-25T04:21:07.979Z,1017.77
2017-05-25T04:21:34.142Z,1017.77
2017-05-25T04:22:00.233Z,1017.77
2017-05-25T04:22:26.329Z,1017.81
2017-05-25T04:22:52.438Z,1017.79
2017-05-25T04:23:18.559Z,1017.83
2017-05-25T04:23:44.673Z,1017.81
2017-05-25T04:24:10.808Z,1017.84
2017-05-25T04:24:36.962Z,1017.81
2017-05-25T04:25:03.126Z,1017.83
2017-05-25T04:25:29.233Z,1017.84
2017-05-25T04:25:55.332Z,1017.84
2017-05-25T04:26:21.422Z,1017.87
2017-05-25T04:26:47.554Z,1017.89
2017-05-25T04:27:13.689Z,1017.9
2017-05-25T04:27:39.851Z,1017.86
2017-05-25T04:28:05.978Z,1017.87
2017-05-25T04:28:32.087Z,1017.87
2017-05-25T04:28:58.179Z,1017.87
2017-05-25T04:29:24.302Z,1017.88
2017-05-25T04:29:50.424Z,1017.86
2017-05-25T04:30:16.552Z,1017.89
2017-05-25T04:30:42.688Z,1017.89
2017-05-25T04:31:08.825Z,1017.87
2017-05-25T04:31:34.952Z,1017.91
2017-05-25T04:32:01.056Z,1017.87
2017-05-25T04:32:27.201Z,1017.9
2017-05-25T04:32:53.282Z,1017.9
2017-05-25T04:33:19.442Z,1017.9
2017-05-25T04:33:45.593Z,1017.89
2017-05-25T04:34:11.710Z,1017.91
2017-05-25T04:34:37.876Z,1017.92
2017-05-25T04:35:03.999Z,1017.91
2017-05-25T04:35:30.130Z,1017.89
2017-05-25T04:35:56.219Z,1017.91
2017-05-25T04:36:22.316Z,1017.9
2017-05-25T04:36:48.424Z,1017.94
2017-05-25T04:37:14.518Z,1017.96
2017-05-25T04:37:40.639Z,1017.96
2017-05-25T04:38:06.776Z,1017.98
2017-05-25T04:38:32.925Z,1017.95
2017-05-25T04:38:59.043Z,1017.97
2017-05-25T04:39:25.177Z,1017.99
2017-05-25T04:39:51.278Z,1018
2017-05-25T04:40:17.368Z,1018
2017-05-25T04:40:43.496Z,1017.97
2017-05-25T04:41:09.586Z,1018.01
2017-05-25T04:41:35.699Z,1017.99
2017-05-25T04:42:01.798Z,1017.99
2017-05-25T04:42:27.889Z,1018.01
2017-05-25T04:42:54.023Z,1018
2017-05-25T04:43:20.122Z,1018.01
2017-05-25T04:43:46.242Z,1018.01
2017-05-25T04:44:12.452Z,1018.01
2017-05-25T04:44:38.616Z,1018.02
2017-05-25T04:45:04.728Z,1018.04
2017-05-25T04:45:30.827Z,1018.01
2017-05-25T04:45:56.963Z,1017.97
2017-05-25T04:46:23.052Z,1018.02
2017-05-25T04:46:49.150Z,1018
2017-05-25T04:47:15.286Z,1018
2017-05-25T04:47:41.434Z,1017.98
2017-05-25T04:48:07.551Z,1018
2017-05-25T04:48:33.660Z,1018.02
2017-05-25T04:48:59.786Z,1018
2017-05-25T04:49:25.900Z,1018.01
2017-05-25T04:49:52.052Z,1018.01
2017-05-25T04:50:18.179Z,1018.03
2017-05-25T04:50:44.270Z,1017.98
2017-05-25T04:51:10.425Z,1018.02
2017-05-25T04:51:36.531Z,1018.04
2017-05-25T04:52:02.625Z,1018.02
2017-05-25T04:52:28.749Z,1018.01
2017-05-25T04:52:54.908Z,1018.02
2017-05-25T04:53:21.015Z,1018.03
2017-05-25T04:53:47.198Z,1018
2017-05-25T04:54:13.342Z,1017.98
2017-05-25T04:54:39.468Z,1018.01
2017-05-25T04:55:05.605Z,1017.99
2017-05-25T04:55:31.768Z,1017.99
2017-05-25T04:55:57.916Z,1017.95
2017-05-25T04:56:24.025Z,1017.99
2017-05-25T04:56:50.114Z,1017.99
2017-05-25T04:57:16.210Z,1017.98
2017-05-25T04:57:42.332Z,1017.97
2017-05-25T04:58:08.434Z,1017.96
2017-05-25T04:58:34.571Z,1017.99
2017-05-25T04:59:00.657Z,1018.02
2017-05-25T04:59:26.756Z,1018.01
2017-05-25T04:59:52.867Z,1018.01
2017-05-25T05:00:18.983Z,1018.02
2017-05-25T05:00:45.080Z,1018.02
2017-05-25T05:01:11.186Z,1018
2017-05-25T05:01:37.305Z,1018.05
2017-05-25T05:02:03.397Z,1018.02
2017-05-25T05:02:29.533Z,1018.02
2017-05-25T05:02:55.741Z,1018.05
2017-05-25T05:03:21.875Z,1018.07
2017-05-25T05:03:48.017Z,1018.02
2017-05-25T05:04:14.165Z,1018.03
2017-05-25T05:04:40.303Z,1018.03
2017-05-25T05:05:06.451Z,1018.03
2017-05-25T05:05:32.540Z,1018.06
2017-05-25T05:05:58.733Z,1018.03
2017-05-25T05:06:24.859Z,1018.07
2017-05-25T05:06:50.951Z,1018.07
2017-05-25T05:07:17.058Z,1018.05
2017-05-25T05:07:43.157Z,1018.08
2017-05-25T05:08:09.246Z,1018.05
2017-05-25T05:08:35.407Z,1018.09
2017-05-25T05:09:01.514Z,1018.1
2017-05-25T05:09:27.628Z,1018.11
2017-05-25T05:09:53.754Z,1018.1
2017-05-25T05:10:19.860Z,1018.14
2017-05-25T05:10:45.949Z,1018.13
2017-05-25T05:11:12.072Z,1018.1
2017-05-25T05:11:38.179Z,1018.1
2017-05-25T05:12:04.302Z,1018.12
2017-05-25T05:12:30.418Z,1018.18
2017-05-25T05:12:56.587Z,1018.17
2017-05-25T05:13:22.687Z,1018.16
2017-05-25T05:14:18.678Z,1018.15
2017-05-25T05:14:44.727Z,1018.19
2017-05-25T05:15:10.844Z,1018.19
2017-05-25T05:15:36.980Z,1018.23
2017-05-25T05:16:03.137Z,1018.25
2017-05-25T05:16:29.253Z,1018.19
2017-05-25T05:16:55.359Z,1018.22
2017-05-25T05:17:21.467Z,1018.2
2017-05-25T05:17:47.582Z,1018.23